Time,TemperatureF,DewpointF,PressureIn,WindDirection,WindDirectionDegrees,WindSpeedMPH,WindSpeedGustMPH,Humidity,HourlyPrecipIn,Conditions,Clouds,dailyrainin,SoftwareType,DateUTC
2013-10-04 00:00:00,67.1,57.4,17.72,ESE,118,0.0,0.0,71,0.00,,SKC,0.00,VWS V14.00,2013-10-04 04:00:00,
2013-10-04 00:35:00,66.6,57.3,17.72,ESE,118,0.0,0.0,72,0.00,,SKC,0.00,VWS V14.00,2013-10-04 04:35:00,
2013-10-04 00:40:00,66.4,57.1,17.72,ESE,118,0.0,0.0,72,0.00,,SKC,0.00,VWS V14.00,2013-10-04 04:40:00,
2013-10-04 00:45:00,66.4,57.1,17.72,ESE,118,0.0,0.0,72,0.00,,SKC,0.00,VWS V14.00,2013-10-04 04:45:00,
2013-10-04 00:50:00,66.4,57.1,17.72,ESE,118,0.0,0.0,72,0.00,,SKC,0.00,VWS V14.00,2013-10-04 04:50:00,
2013-10-04 00:55:00,66.2,56.9,17.72,ESE,118,0.0,0.0,72,0.00,,SKC,0.00,VWS V14.00,2013-10-04 04:55:00,
2013-10-04 01:00:00,66.2,56.9,17.72,ESE,118,0.0,0.0,72,0.00,,SKC,0.00,VWS V14.00,2013-10-04 05:00:00,
2013-10-04 01:16:00,65.8,57.0,17.72,ESE,118,0.0,0.0,73,0.00,,SKC,0.00,VWS V14.00,2013-10-04 05:16:00,
2013-10-04 01:21:00,65.8,57.0,17.72,ESE,118,0.0,0.0,73,0.00,,SKC,0.00,VWS V14.00,2013-10-04 05:21:00,
2013-10-04 01:26:00,65.7,57.2,17.72,ESE,118,0.0,0.0,74,0.00,,SKC,0.00,VWS V14.00,2013-10-04 05:26:00,
2013-10-04 01:30:00,65.7,57.2,17.72,ESE,118,0.0,0.0,74,0.00,,SKC,0.00,VWS V14.00,2013-10-04 05:30:00,
2013-10-04 01:31:00,65.7,57.2,17.72,ESE,118,0.0,0.0,74,0.00,,SKC,0.00,VWS V14.00,2013-10-04 05:31:00,
2013-10-04 01:36:00,65.7,57.2,17.72,ESE,118,0.0,0.0,74,0.00,,SKC,0.00,VWS V14.00,2013-10-04 05:36:00,
2013-10-04 01:41:00,65.7,57.2,17.72,ESE,118,0.0,0.0,74,0.00,,SKC,0.00,VWS V14.00,2013-10-04 05:41:00,
2013-10-04 01:46:00,65.5,57.0,17.72,ESE,118,0.0,0.0,74,0.00,,SKC,0.00,VWS V14.00,2013-10-04 05:46:00,
2013-10-04 01:51:00,65.5,57.0,17.72,ESE,118,0.0,0.0,74,0.00,,SKC,0.00,VWS V14.00,2013-10-04 05:51:00,
2013-10-04 01:56:00,65.5,57.0,17.72,ESE,118,0.0,0.0,74,0.00,,SKC,0.00,VWS V14.00,2013-10-04 05:56:00,
2013-10-04 02:01:00,65.3,56.8,17.72,ESE,118,0.0,0.0,74,0.00,,SKC,0.00,VWS V14.00,2013-10-04 06:01:00,
2013-10-04 02:06:00,65.1,56.6,17.72,ESE,118,0.0,0.0,74,0.00,,SKC,0.00,VWS V14.00,2013-10-04 06:06:00,
2013-10-04 02:11:00,65.1,56.6,17.72,ESE,118,0.0,0.0,74,0.00,,SKC,0.00,VWS V14.00,2013-10-04 06:11:00,
2013-10-04 02:16:00,64.9,56.5,17.72,ESE,118,0.0,0.0,74,0.00,,SKC,0.00,VWS V14.00,2013-10-04 06:16:00,
2013-10-04 02:21:00,64.8,56.3,17.72,ESE,118,0.0,0.0,74,0.00,,SKC,0.00,VWS V14.00,2013-10-04 06:21:00,
2013-10-04 02:26:00,64.8,56.7,17.72,ESE,118,0.0,0.0,75,0.00,,SKC,0.00,VWS V14.00,2013-10-04 06:26:00,
2013-10-04 02:31:00,64.8,56.7,17.72,ESE,118,0.0,0.0,75,0.00,,SKC,0.00,VWS V14.00,2013-10-04 06:31:00,
2013-10-04 02:36:00,64.6,56.5,17.72,ESE,118,0.0,0.0,75,0.00,,SKC,0.00,VWS V14.00,2013-10-04 06:36:00,
2013-10-04 02:41:00,64.6,56.5,17.72,ESE,118,0.0,0.0,75,0.00,,SKC,0.00,VWS V14.00,2013-10-04 06:41:00,
2013-10-04 02:46:00,64.6,56.5,17.72,ESE,118,0.0,0.0,75,0.00,,SKC,0.00,VWS V14.00,2013-10-04 06:46:00,
2013-10-04 02:51:00,64.4,56.3,17.72,ESE,118,0.0,0.0,75,0.00,,SKC,0.00,VWS V14.00,2013-10-04 06:51:00,
2013-10-04 02:56:00,64.4,56.3,17.72,ESE,118,0.0,0.0,75,0.00,,SKC,0.00,VWS V14.00,2013-10-04 06:56:00,
2013-10-04 03:01:00,64.2,56.1,17.72,ESE,118,0.0,0.0,75,0.00,,SKC,0.00,VWS V14.00,2013-10-04 07:01:00,
2013-10-04 03:06:00,64.0,56.0,17.72,ESE,118,0.0,0.0,75,0.00,,SKC,0.00,VWS V14.00,2013-10-04 07:06:00,
2013-10-04 03:11:00,63.9,55.8,17.72,ESE,118,0.0,0.0,75,0.00,,SKC,0.00,VWS V14.00,2013-10-04 07:11:00,
2013-10-04 03:16:00,63.9,56.2,17.72,ESE,118,0.0,0.0,76,0.00,,SKC,0.00,VWS V14.00,2013-10-04 07:16:00,
2013-10-04 03:21:00,63.7,56.0,17.72,ESE,118,0.0,0.0,76,0.00,,SKC,0.00,VWS V14.00,2013-10-04 07:21:00,
2013-10-04 03:26:00,63.5,55.8,17.72,ESE,118,0.0,0.0,76,0.00,,SKC,0.00,VWS V14.00,2013-10-04 07:26:00,
2013-10-04 03:31:00,63.5,55.8,17.72,ESE,118,0.0,0.0,76,0.00,,SKC,0.00,VWS V14.00,2013-10-04 07:31:00,
2013-10-04 03:36:00,63.3,56.0,17.72,ESE,118,0.0,0.0,77,0.00,,SKC,0.00,VWS V14.00,2013-10-04 07:36:00,
2013-10-04 03:41:00,63.1,55.5,17.72,ESE,118,0.0,0.0,76,0.00,,SKC,0.00,VWS V14.00,2013-10-04 07:41:00,
2013-10-04 03:46:00,63.1,55.5,17.72,ESE,118,0.0,0.0,76,0.00,,SKC,0.00,VWS V14.00,2013-10-04 07:46:00,
2013-10-04 03:51:00,63.0,55.7,17.72,ESE,118,0.0,0.0,77,0.00,,SKC,0.00,VWS V14.00,2013-10-04 07:51:00,
2013-10-04 03:56:00,63.0,55.7,17.72,ESE,118,0.0,0.0,77,0.00,,SKC,0.00,VWS V14.00,2013-10-04 07:56:00,
2013-10-04 04:01:00,63.0,55.7,17.72,ESE,118,0.0,0.0,77,0.00,,SKC,0.00,VWS V14.00,2013-10-04 08:01:00,
2013-10-04 04:06:00,62.8,55.5,17.72,ESE,118,0.0,0.0,77,0.00,,SKC,0.00,VWS V14.00,2013-10-04 08:06:00,
2013-10-04 04:11:00,62.8,55.5,17.72,ESE,118,0.0,0.0,77,0.00,,SKC,0.00,VWS V14.00,2013-10-04 08:11:00,
2013-10-04 04:16:00,62.8,55.5,17.72,ESE,118,0.0,0.0,77,0.00,,SKC,0.00,VWS V14.00,2013-10-04 08:16:00,
2013-10-04 04:21:00,62.8,55.5,17.72,ESE,118,0.0,0.0,77,0.00,,SKC,0.00,VWS V14.00,2013-10-04 08:21:00,
2013-10-04 04:26:00,62.6,55.3,17.72,ESE,118,0.0,0.0,77,0.00,,SKC,0.00,VWS V14.00,2013-10-04 08:26:00,
2013-10-04 04:31:00,62.8,55.5,17.72,ESE,118,0.0,0.0,77,0.00,,SKC,0.00,VWS V14.00,2013-10-04 08:31:00,
2013-10-04 04:36:00,62.8,55.5,17.72,ESE,118,0.0,0.0,77,0.00,,SKC,0.00,VWS V14.00,2013-10-04 08:36:00,
2013-10-04 04:41:00,62.6,55.3,17.72,ESE,118,0.0,0.0,77,0.00,,SKC,0.00,VWS V14.00,2013-10-04 08:41:00,
2013-10-04 04:46:00,62.6,55.3,17.72,ESE,118,0.0,0.0,77,0.00,,SKC,0.00,VWS V14.00,2013-10-04 08:46:00,
2013-10-04 04:51:00,62.4,55.1,17.72,ESE,118,0.0,0.0,77,0.00,,SKC,0.00,VWS V14.00,2013-10-04 08:51:00,
2013-10-04 04:56:00,62.4,55.5,17.72,ESE,118,0.0,0.0,78,0.00,,SKC,0.00,VWS V14.00,2013-10-04 08:56:00,
2013-10-04 05:01:00,62.2,55.3,17.72,ESE,118,0.0,0.0,78,0.00,,SKC,0.00,VWS V14.00,2013-10-04 09:01:00,
2013-10-04 05:06:00,62.2,55.3,17.72,ESE,118,0.0,0.0,78,0.00,,SKC,0.00,VWS V14.00,2013-10-04 09:06:00,
2013-10-04 05:11:00,62.2,55.3,17.72,ESE,118,0.0,0.0,78,0.00,,SKC,0.00,VWS V14.00,2013-10-04 09:11:00,
2013-10-04 05:16:00,62.1,55.1,17.72,ESE,118,0.0,0.0,78,0.00,,SKC,0.00,VWS V14.00,2013-10-04 09:16:00,
2013-10-04 05:21:00,61.9,55.0,17.72,ESE,118,0.0,0.0,78,0.00,,SKC,0.00,VWS V14.00,2013-10-04 09:21:00,
2013-10-04 05:26:00,61.9,55.0,17.72,ESE,118,0.0,0.0,78,0.00,,SKC,0.00,VWS V14.00,2013-10-04 09:26:00,
2013-10-04 05:31:00,61.9,55.0,17.72,ESE,118,0.0,0.0,78,0.00,,SKC,0.00,VWS V14.00,2013-10-04 09:31:00,
2013-10-04 05:36:00,61.9,55.0,17.72,ESE,118,0.0,0.0,78,0.00,,SKC,0.00,VWS V14.00,2013-10-04 09:36:00,
2013-10-04 05:42:00,61.9,55.0,17.72,ESE,118,0.0,0.0,78,0.00,,SKC,0.00,VWS V14.00,2013-10-04 09:42:00,
2013-10-04 05:47:00,61.7,54.8,17.72,ESE,118,0.0,0.0,78,0.00,,SKC,0.00,VWS V14.00,2013-10-04 09:47:00,
2013-10-04 05:52:00,61.7,54.8,17.72,ESE,118,0.0,0.0,78,0.00,,SKC,0.00,VWS V14.00,2013-10-04 09:52:00,
2013-10-04 05:57:00,61.5,54.6,17.72,ESE,118,0.0,0.0,78,0.00,,SKC,0.00,VWS V14.00,2013-10-04 09:57:00,
2013-10-04 06:02:00,61.5,54.6,17.72,ESE,118,0.0,0.0,78,0.00,,SKC,0.00,VWS V14.00,2013-10-04 10:02:00,
2013-10-04 06:07:00,61.3,54.4,17.72,ESE,118,0.0,0.0,78,0.00,,SKC,0.00,VWS V14.00,2013-10-04 10:07:00,
2013-10-04 06:12:00,61.2,54.3,17.72,ESE,118,0.0,0.0,78,0.00,,SKC,0.00,VWS V14.00,2013-10-04 10:12:00,
2013-10-04 06:17:00,61.2,54.3,17.72,ESE,118,0.0,0.0,78,0.00,,SKC,0.00,VWS V14.00,2013-10-04 10:17:00,
2013-10-04 06:22:00,61.0,54.1,17.72,ESE,118,0.0,0.0,78,0.00,,SKC,0.00,VWS V14.00,2013-10-04 10:22:00,
2013-10-04 06:27:00,61.0,54.1,17.72,ESE,118,0.0,0.0,78,0.00,,SKC,0.00,VWS V14.00,2013-10-04 10:27:00,
2013-10-04 06:32:00,61.0,54.1,17.72,ESE,118,0.0,0.0,78,0.00,,SKC,0.00,VWS V14.00,2013-10-04 10:32:00,
2013-10-04 06:37:00,61.0,54.1,17.72,ESE,118,0.0,0.0,78,0.00,,SKC,0.00,VWS V14.00,2013-10-04 10:37:00,
2013-10-04 06:42:00,61.0,54.1,17.72,ESE,118,0.0,0.0,78,0.00,,SKC,0.00,VWS V14.00,2013-10-04 10:42:00,
2013-10-04 06:47:00,60.8,53.9,17.72,ESE,118,0.0,0.0,78,0.00,,SKC,0.00,VWS V14.00,2013-10-04 10:47:00,
2013-10-04 06:52:00,60.8,54.3,17.72,ESE,118,0.0,0.0,79,0.00,,SKC,0.00,VWS V14.00,2013-10-04 10:52:00,
2013-10-04 06:57:00,60.6,54.1,17.72,ESE,118,0.0,0.0,79,0.00,,SKC,0.00,VWS V14.00,2013-10-04 10:57:00,
2013-10-04 07:02:00,60.6,54.1,17.72,ESE,118,0.0,0.0,79,0.00,,SKC,0.00,VWS V14.00,2013-10-04 11:02:00,
2013-10-04 07:07:00,60.6,54.1,17.72,ESE,118,0.0,0.0,79,0.00,,SKC,0.00,VWS V14.00,2013-10-04 11:07:00,
2013-10-04 07:12:00,60.6,54.1,17.72,ESE,118,0.0,0.0,79,0.00,,SKC,0.00,VWS V14.00,2013-10-04 11:12:00,
2013-10-04 07:17:00,60.6,54.1,17.72,ESE,118,0.0,0.0,79,0.00,,SKC,0.00,VWS V14.00,2013-10-04 11:17:00,
2013-10-04 07:22:00,60.4,53.9,17.72,ESE,118,0.0,0.0,79,0.00,,SKC,0.00,VWS V14.00,2013-10-04 11:22:00,
2013-10-04 07:27:00,60.3,53.7,17.72,ESE,118,0.0,0.0,79,0.00,,SKC,0.00,VWS V14.00,2013-10-04 11:27:00,
2013-10-04 07:32:00,60.1,53.6,17.72,ESE,118,0.0,0.0,79,0.00,,SKC,0.00,VWS V14.00,2013-10-04 11:32:00,
2013-10-04 07:37:00,60.1,53.6,17.72,ESE,118,0.0,0.0,79,0.00,,SKC,0.00,VWS V14.00,2013-10-04 11:37:00,
2013-10-04 07:42:00,60.1,53.6,17.72,ESE,118,0.0,0.0,79,0.00,,SKC,0.00,VWS V14.00,2013-10-04 11:42:00,
2013-10-04 07:47:00,60.1,53.6,17.72,ESE,118,0.0,0.0,79,0.00,,SKC,0.00,VWS V14.00,2013-10-04 11:47:00,
2013-10-04 07:52:00,60.1,53.9,17.72,ESE,118,0.0,0.0,80,0.00,,SKC,0.00,VWS V14.00,2013-10-04 11:52:00,
2013-10-04 07:57:00,60.3,53.7,17.72,ESE,118,0.0,0.0,79,0.00,,SKC,0.00,VWS V14.00,2013-10-04 11:57:00,
2013-10-04 08:02:00,60.3,53.7,17.72,ESE,118,0.0,0.0,79,0.00,,SKC,0.00,VWS V14.00,2013-10-04 12:02:00,
2013-10-04 08:07:00,60.3,53.7,17.72,ESE,118,0.0,0.0,79,0.00,,SKC,0.00,VWS V14.00,2013-10-04 12:07:00,
2013-10-04 08:12:00,60.3,54.1,17.72,ESE,118,0.0,0.0,80,0.00,,SKC,0.00,VWS V14.00,2013-10-04 12:12:00,
2013-10-04 08:17:00,60.4,54.2,17.72,ESE,118,0.0,0.0,80,0.00,,SKC,0.00,VWS V14.00,2013-10-04 12:17:00,
2013-10-04 08:22:00,60.4,54.2,17.72,ESE,118,0.0,0.0,80,0.00,,SKC,0.00,VWS V14.00,2013-10-04 12:22:00,
2013-10-04 08:27:00,60.6,54.4,17.72,ESE,118,0.0,0.0,80,0.00,,SKC,0.00,VWS V14.00,2013-10-04 12:27:00,
2013-10-04 08:32:00,61.0,54.8,17.72,ESE,118,0.0,0.0,80,0.00,,SKC,0.00,VWS V14.00,2013-10-04 12:32:00,
2013-10-04 08:37:00,61.2,55.0,17.72,ESE,118,0.0,0.0,80,0.00,,SKC,0.00,VWS V14.00,2013-10-04 12:37:00,
2013-10-04 08:42:00,61.3,55.1,17.72,ESE,118,0.0,0.0,80,0.00,,SKC,0.00,VWS V14.00,2013-10-04 12:42:00,
2013-10-04 08:47:00,61.7,55.5,17.72,ESE,118,0.0,0.0,80,0.00,,SKC,0.00,VWS V14.00,2013-10-04 12:47:00,
2013-10-04 08:52:00,61.9,56.0,17.72,ESE,118,0.0,0.0,81,0.00,,SKC,0.00,VWS V14.00,2013-10-04 12:52:00,
2013-10-04 08:57:00,62.4,56.5,17.72,ESE,118,0.0,0.0,81,0.00,,SKC,0.00,VWS V14.00,2013-10-04 12:57:00,
2013-10-04 09:02:00,62.8,56.9,17.72,ESE,118,0.0,0.0,81,0.00,,SKC,0.00,VWS V14.00,2013-10-04 13:02:00,
2013-10-04 09:07:00,63.3,57.4,17.72,ENE,74,0.0,0.0,81,0.00,,SKC,0.00,VWS V14.00,2013-10-04 13:07:00,
2013-10-04 09:12:00,63.9,57.9,17.72,ENE,74,0.0,0.0,81,0.00,,SKC,0.00,VWS V14.00,2013-10-04 13:12:00,
2013-10-04 09:17:00,64.4,58.5,17.72,ENE,74,0.0,0.0,81,0.00,,SKC,0.00,VWS V14.00,2013-10-04 13:17:00,
2013-10-04 09:22:00,64.8,59.1,17.72,ENE,74,0.0,0.0,82,0.00,,SKC,0.00,VWS V14.00,2013-10-04 13:22:00,
2013-10-04 09:27:00,65.1,59.5,17.72,ENE,74,0.0,0.0,82,0.00,,SKC,0.00,VWS V14.00,2013-10-04 13:27:00,
2013-10-04 09:32:00,65.5,59.8,17.72,ENE,74,0.0,0.0,82,0.00,,SKC,0.00,VWS V14.00,2013-10-04 13:32:00,
2013-10-04 09:37:00,66.0,60.4,17.72,ENE,74,0.0,0.0,82,0.00,,SKC,0.00,VWS V14.00,2013-10-04 13:37:00,
2013-10-04 09:42:00,66.4,60.7,17.72,ENE,74,0.0,0.0,82,0.00,,SKC,0.00,VWS V14.00,2013-10-04 13:42:00,
2013-10-04 09:47:00,66.9,61.2,17.72,NE,34,3.8,4.9,82,0.00,,SKC,0.00,VWS V14.00,2013-10-04 13:47:00,
2013-10-04 09:52:00,67.3,61.6,17.72,NE,34,0.0,0.0,82,0.00,,SKC,0.00,VWS V14.00,2013-10-04 13:52:00,
2013-10-04 09:57:00,67.6,62.0,17.72,NE,35,5.9,5.9,82,0.00,,SKC,0.00,VWS V14.00,2013-10-04 13:57:00,
2013-10-04 10:02:00,68.2,62.5,17.72,NNE,19,0.0,0.0,82,0.00,,SKC,0.00,VWS V14.00,2013-10-04 14:02:00,
2013-10-04 10:07:00,68.5,62.5,17.72,NE,39,0.0,0.0,81,0.00,,SKC,0.00,VWS V14.00,2013-10-04 14:07:00,
2013-10-04 10:12:00,68.7,62.7,17.72,NNE,23,5.4,5.4,81,0.00,,SKC,0.00,VWS V14.00,2013-10-04 14:12:00,
2013-10-04 10:17:00,68.9,62.8,17.72,NE,36,0.0,5.4,81,0.00,,SKC,0.00,VWS V14.00,2013-10-04 14:17:00,
2013-10-04 10:22:00,69.1,63.0,17.72,ESE,104,0.0,0.0,81,0.00,,SKC,0.00,VWS V14.00,2013-10-04 14:22:00,
2013-10-04 10:27:00,69.4,63.4,17.72,ENE,62,0.0,0.0,81,0.00,,SKC,0.00,VWS V14.00,2013-10-04 14:27:00,
2013-10-04 10:32:00,69.8,63.4,17.72,East,99,0.0,0.0,80,0.00,,SKC,0.00,VWS V14.00,2013-10-04 14:32:00,
2013-10-04 10:37:00,70.0,63.5,17.72,NNE,32,0.0,0.0,80,0.00,,SKC,0.00,VWS V14.00,2013-10-04 14:37:00,
2013-10-04 10:42:00,70.3,63.9,17.72,NNE,29,0.0,0.0,80,0.00,,SKC,0.00,VWS V14.00,2013-10-04 14:42:00,
2013-10-04 10:47:00,70.7,63.9,17.72,NNE,33,5.9,5.9,79,0.00,,SKC,0.00,VWS V14.00,2013-10-04 14:47:00,
2013-10-04 10:52:00,71.1,64.2,17.72,NE,56,0.0,2.7,79,0.00,,SKC,0.00,VWS V14.00,2013-10-04 14:52:00,
2013-10-04 10:57:00,71.6,64.0,17.72,NE,40,0.0,2.7,77,0.00,,SKC,0.00,VWS V14.00,2013-10-04 14:57:00,
2013-10-04 11:02:00,72.0,64.4,17.72,NE,40,0.0,0.0,77,0.00,,SKC,0.00,VWS V14.00,2013-10-04 15:02:00,
2013-10-04 11:07:00,72.0,64.0,17.72,NE,40,0.0,0.0,76,0.00,,SKC,0.00,VWS V14.00,2013-10-04 15:07:00,
2013-10-04 11:12:00,72.1,64.5,17.72,NE,40,0.0,0.0,77,0.00,,SKC,0.00,VWS V14.00,2013-10-04 15:12:00,
2013-10-04 11:17:00,72.7,65.1,17.72,NE,40,0.0,0.0,77,0.00,,SKC,0.00,VWS V14.00,2013-10-04 15:17:00,
2013-10-04 11:20:00,72.9,65.2,17.72,NE,38,0.0,0.0,77,0.00,,SKC,0.00,VWS V14.00,2013-10-04 15:20:00,
2013-10-04 11:27:00,73.4,65.4,17.72,NE,38,0.0,0.0,76,0.00,,SKC,0.00,VWS V14.00,2013-10-04 15:27:00,
2013-10-04 11:32:00,73.9,65.5,17.72,NE,38,0.0,0.0,75,0.00,,SKC,0.00,VWS V14.00,2013-10-04 15:32:00,
2013-10-04 11:38:00,74.3,65.5,17.72,NE,38,0.0,0.0,74,0.00,,SKC,0.00,VWS V14.00,2013-10-04 15:38:00,
2013-10-04 11:43:00,74.5,64.9,17.72,ENE,61,0.0,0.0,72,0.00,,SKC,0.00,VWS V14.00,2013-10-04 15:43:00,
2013-10-04 11:48:00,74.7,65.0,17.72,ENE,59,0.0,0.0,72,0.00,,SKC,0.00,VWS V14.00,2013-10-04 15:48:00,
2013-10-04 11:53:00,74.8,65.2,17.72,SSW,205,0.0,0.0,72,0.00,,SKC,0.00,VWS V14.00,2013-10-04 15:53:00,
2013-10-04 11:58:00,75.0,65.4,17.72,SSW,208,0.0,0.0,72,0.00,,SKC,0.00,VWS V14.00,2013-10-04 15:58:00,
2013-10-04 12:03:00,75.4,65.3,17.72,SSW,208,0.0,0.0,71,0.00,,SKC,0.00,VWS V14.00,2013-10-04 16:03:00,
2013-10-04 12:08:00,75.9,65.4,17.72,SSW,195,0.0,0.0,70,0.00,,SKC,0.00,VWS V14.00,2013-10-04 16:08:00,
2013-10-04 12:13:00,76.3,65.4,17.72,WSW,240,0.0,0.0,69,0.00,,SKC,0.00,VWS V14.00,2013-10-04 16:13:00,
2013-10-04 12:18:00,76.6,65.7,17.72,South,182,0.0,0.0,69,0.00,,SKC,0.00,VWS V14.00,2013-10-04 16:18:00,
2013-10-04 12:23:00,77.2,66.2,17.72,SSW,206,0.0,0.0,69,0.00,,SKC,0.00,VWS V14.00,2013-10-04 16:23:00,
2013-10-04 12:28:00,77.4,66.0,17.72,SW,223,0.0,0.0,68,0.00,,SKC,0.00,VWS V14.00,2013-10-04 16:28:00,
2013-10-04 12:33:00,77.4,66.0,17.72,SW,223,0.0,0.0,68,0.00,,SKC,0.00,VWS V14.00,2013-10-04 16:33:00,
2013-10-04 12:38:00,77.7,65.9,17.72,SW,223,0.0,0.0,67,0.00,,SKC,0.00,VWS V14.00,2013-10-04 16:38:00,
2013-10-04 12:43:00,77.9,65.6,17.72,SW,223,0.0,0.0,66,0.00,,SKC,0.00,VWS V14.00,2013-10-04 16:43:00,
2013-10-04 12:48:00,78.1,65.8,17.72,SSW,204,0.0,0.0,66,0.00,,SKC,0.00,VWS V14.00,2013-10-04 16:48:00,
2013-10-04 12:53:00,78.4,64.8,17.72,NNE,33,0.0,3.1,63,0.00,,SKC,0.00,VWS V14.00,2013-10-04 16:53:00,
2013-10-04 12:58:00,79.0,65.3,17.72,NNE,33,0.0,3.1,63,0.00,,SKC,0.00,VWS V14.00,2013-10-04 16:58:00,
2013-10-04 13:03:00,79.3,65.7,17.72,NNE,33,0.0,0.0,63,0.00,,SKC,0.00,VWS V14.00,2013-10-04 17:03:00,
2013-10-04 13:08:00,79.7,65.1,17.72,SSE,153,0.0,0.0,61,0.00,,SKC,0.00,VWS V14.00,2013-10-04 17:08:00,
2013-10-04 13:13:00,79.9,65.2,17.72,SSW,207,4.3,4.3,61,0.00,,SKC,0.00,VWS V14.00,2013-10-04 17:13:00,
2013-10-04 13:18:00,79.5,64.4,17.72,SW,232,0.0,3.6,60,0.00,,SKC,0.00,VWS V14.00,2013-10-04 17:18:00,
2013-10-04 13:23:00,79.5,64.4,17.72,SE,144,0.0,0.0,60,0.00,,SKC,0.00,VWS V14.00,2013-10-04 17:23:00,
2013-10-04 13:28:00,79.9,64.8,17.72,SE,146,0.0,0.0,60,0.00,,SKC,0.00,VWS V14.00,2013-10-04 17:28:00,
2013-10-04 13:33:00,80.2,65.1,17.72,SE,146,0.0,0.0,60,0.00,,SKC,0.00,VWS V14.00,2013-10-04 17:33:00,
2013-10-04 14:03:00,80.2,63.1,17.72,SW,216,0.0,0.0,56,0.00,,SKC,0.00,VWS V14.00,2013-10-04 18:03:00,
2013-10-04 14:08:00,80.2,63.1,17.72,SW,216,0.0,0.0,56,0.00,,SKC,0.00,VWS V14.00,2013-10-04 18:08:00,
2013-10-04 14:13:00,80.8,63.6,17.72,SW,216,0.0,0.0,56,0.00,,SKC,0.00,VWS V14.00,2013-10-04 18:13:00,
2013-10-04 14:18:00,80.2,62.1,17.72,SW,216,0.0,0.0,54,0.00,,SKC,0.00,VWS V14.00,2013-10-04 18:18:00,
2013-10-04 14:23:00,79.9,61.8,17.72,SW,216,0.0,0.0,54,0.00,,SKC,0.00,VWS V14.00,2013-10-04 18:23:00,
2013-10-04 14:28:00,79.7,61.6,17.72,SW,216,0.0,0.0,54,0.00,,SKC,0.00,VWS V14.00,2013-10-04 18:28:00,
2013-10-04 14:33:00,80.6,62.4,17.72,SSW,209,0.0,0.0,54,0.00,,SKC,0.00,VWS V14.00,2013-10-04 18:33:00,
2013-10-04 14:38:00,81.5,63.3,17.72,SE,129,0.0,4.0,54,0.00,,SKC,0.00,VWS V14.00,2013-10-04 18:38:00,
2013-10-04 14:43:00,82.4,62.5,17.72,SE,127,4.8,5.4,51,0.00,,SKC,0.00,VWS V14.00,2013-10-04 18:43:00,
2013-10-04 14:48:00,83.1,63.1,17.72,SW,214,0.0,5.4,51,0.00,,SKC,0.00,VWS V14.00,2013-10-04 18:48:00,
2013-10-04 14:53:00,83.7,63.1,17.72,SE,137,0.0,0.0,50,0.00,,SKC,0.00,VWS V14.00,2013-10-04 18:53:00,
2013-10-04 14:58:00,83.8,62.1,17.72,ESE,103,0.0,0.0,48,0.00,,SKC,0.00,VWS V14.00,2013-10-04 18:58:00,
2013-10-04 15:03:00,84.0,62.2,17.72,ESE,103,0.0,0.0,48,0.00,,SKC,0.00,VWS V14.00,2013-10-04 19:03:00,
2013-10-04 15:08:00,84.2,61.8,17.72,ESE,103,0.0,0.0,47,0.00,,SKC,0.00,VWS V14.00,2013-10-04 19:08:00,
2013-10-04 15:13:00,84.4,61.4,17.72,South,190,0.0,0.0,46,0.00,,SKC,0.00,VWS V14.00,2013-10-04 19:13:00,
2013-10-04 15:18:00,84.6,61.5,17.72,SSW,212,0.0,2.7,46,0.00,,SKC,0.00,VWS V14.00,2013-10-04 19:18:00,
2013-10-04 15:23:00,84.7,61.7,17.72,SSE,166,0.0,3.6,46,0.00,,SKC,0.00,VWS V14.00,2013-10-04 19:23:00,
2013-10-04 15:28:00,84.9,61.2,17.72,SSE,166,0.0,3.6,45,0.00,,SKC,0.00,VWS V14.00,2013-10-04 19:28:00,
2013-10-04 15:33:00,85.1,60.1,17.72,SSE,166,0.0,0.0,43,0.00,,SKC,0.00,VWS V14.00,2013-10-04 19:33:00,
2013-10-04 15:38:00,84.7,60.4,17.72,South,182,0.0,0.0,44,0.00,,SKC,0.00,VWS V14.00,2013-10-04 19:38:00,
2013-10-04 15:43:00,84.7,60.4,17.72,South,175,0.0,2.7,44,0.00,,SKC,0.00,VWS V14.00,2013-10-04 19:43:00,
2013-10-04 15:48:00,84.7,60.4,17.72,South,175,0.0,2.7,44,0.00,,SKC,0.00,VWS V14.00,2013-10-04 19:48:00,
2013-10-04 15:53:00,84.7,60.4,17.72,South,175,0.0,0.0,44,0.00,,SKC,0.00,VWS V14.00,2013-10-04 19:53:00,
2013-10-04 15:58:00,84.9,60.6,17.72,ESE,122,0.0,0.0,44,0.00,,SKC,0.00,VWS V14.00,2013-10-04 19:58:00,
2013-10-04 16:03:00,84.4,60.1,17.72,ESE,122,0.0,0.0,44,0.00,,SKC,0.00,VWS V14.00,2013-10-04 20:03:00,
2013-10-04 16:08:00,84.0,59.8,17.72,ESE,123,0.0,0.0,44,0.00,,SKC,0.00,VWS V14.00,2013-10-04 20:08:00,
2013-10-04 16:13:00,83.8,59.6,17.72,ESE,122,0.0,0.0,44,0.00,,SKC,0.00,VWS V14.00,2013-10-04 20:13:00,
2013-10-04 16:18:00,83.5,58.7,17.72,ESE,122,0.0,0.0,43,0.00,,SKC,0.00,VWS V14.00,2013-10-04 20:18:00,
2013-10-04 16:23:00,83.1,58.3,17.72,ESE,122,0.0,0.0,43,0.00,,SKC,0.00,VWS V14.00,2013-10-04 20:23:00,
2013-10-04 16:28:00,82.9,58.2,17.72,ESE,122,0.0,0.0,43,0.00,,SKC,0.00,VWS V14.00,2013-10-04 20:28:00,
2013-10-04 16:33:00,82.6,57.8,17.72,ESE,123,0.0,0.0,43,0.00,,SKC,0.00,VWS V14.00,2013-10-04 20:33:00,
2013-10-04 16:38:00,82.4,57.7,17.72,ESE,122,0.0,0.0,43,0.00,,SKC,0.00,VWS V14.00,2013-10-04 20:38:00,
2013-10-04 16:43:00,82.0,58.0,17.72,ESE,122,0.0,0.0,44,0.00,,SKC,0.00,VWS V14.00,2013-10-04 20:43:00,
2013-10-04 16:48:00,81.9,57.8,17.72,ESE,122,0.0,0.0,44,0.00,,SKC,0.00,VWS V14.00,2013-10-04 20:48:00,
2013-10-04 16:53:00,81.5,57.5,17.72,ESE,123,0.0,0.0,44,0.00,,SKC,0.00,VWS V14.00,2013-10-04 20:53:00,
2013-10-04 16:58:00,81.0,56.4,17.72,ESE,122,0.0,0.0,43,0.00,,SKC,0.00,VWS V14.00,2013-10-04 20:58:00,
2013-10-04 17:03:00,80.4,55.9,17.72,ESE,122,0.0,0.0,43,0.00,,SKC,0.00,VWS V14.00,2013-10-04 21:03:00,
2013-10-04 17:08:00,80.1,56.2,17.72,ESE,123,0.0,0.0,44,0.00,,SKC,0.00,VWS V14.00,2013-10-04 21:08:00,
2013-10-04 17:13:00,79.9,56.0,17.72,ESE,122,0.0,0.0,44,0.00,,SKC,0.00,VWS V14.00,2013-10-04 21:13:00,
2013-10-04 17:18:00,79.7,55.9,17.72,ESE,122,0.0,0.0,44,0.00,,SKC,0.00,VWS V14.00,2013-10-04 21:18:00,
2013-10-04 17:23:00,79.5,56.3,17.72,ESE,122,0.0,0.0,45,0.00,,SKC,0.00,VWS V14.00,2013-10-04 21:23:00,
2013-10-04 17:28:00,79.2,56.0,17.72,ESE,122,0.0,0.0,45,0.00,,SKC,0.00,VWS V14.00,2013-10-04 21:28:00,
2013-10-04 17:33:00,79.0,56.5,17.72,ESE,122,0.0,0.0,46,0.00,,SKC,0.00,VWS V14.00,2013-10-04 21:33:00,
2013-10-04 17:39:00,78.6,56.1,17.72,ESE,122,0.0,0.0,46,0.00,,SKC,0.00,VWS V14.00,2013-10-04 21:39:00,
2013-10-04 17:44:00,78.1,55.6,17.72,ESE,123,0.0,0.0,46,0.00,,SKC,0.00,VWS V14.00,2013-10-04 21:44:00,
2013-10-04 17:49:00,77.7,55.3,17.72,ESE,122,0.0,0.0,46,0.00,,SKC,0.00,VWS V14.00,2013-10-04 21:49:00,
2013-10-04 17:54:00,77.7,55.3,17.72,ESE,123,0.0,0.0,46,0.00,,SKC,0.00,VWS V14.00,2013-10-04 21:54:00,
2013-10-04 17:59:00,77.7,55.9,17.72,ESE,123,0.0,0.0,47,0.00,,SKC,0.00,VWS V14.00,2013-10-04 21:59:00,
2013-10-04 18:04:00,77.5,55.7,17.72,ESE,123,0.0,0.0,47,0.00,,SKC,0.00,VWS V14.00,2013-10-04 22:04:00,
2013-10-04 18:09:00,77.5,55.7,17.72,ESE,123,0.0,0.0,47,0.00,,SKC,0.00,VWS V14.00,2013-10-04 22:09:00,
2013-10-04 18:14:00,77.5,55.7,17.72,NE,37,0.0,0.0,47,0.00,,SKC,0.00,VWS V14.00,2013-10-04 22:14:00,
2013-10-04 18:19:00,77.4,56.2,17.72,NE,37,0.0,0.0,48,0.00,,SKC,0.00,VWS V14.00,2013-10-04 22:19:00,
2013-10-04 18:24:00,77.4,56.2,17.72,NE,37,0.0,0.0,48,0.00,,SKC,0.00,VWS V14.00,2013-10-04 22:24:00,
2013-10-04 18:29:00,77.2,56.6,17.72,NE,37,0.0,0.0,49,0.00,,SKC,0.00,VWS V14.00,2013-10-04 22:29:00,
2013-10-04 18:34:00,77.2,56.6,17.72,NE,37,0.0,0.0,49,0.00,,SKC,0.00,VWS V14.00,2013-10-04 22:34:00,
2013-10-04 18:39:00,77.0,56.4,17.72,NE,37,0.0,0.0,49,0.00,,SKC,0.00,VWS V14.00,2013-10-04 22:39:00,
2013-10-04 18:44:00,76.6,56.6,17.72,NE,37,0.0,0.0,50,0.00,,SKC,0.00,VWS V14.00,2013-10-04 22:44:00,
2013-10-04 18:49:00,76.5,56.5,17.72,NE,37,0.0,0.0,50,0.00,,SKC,0.00,VWS V14.00,2013-10-04 22:49:00,
2013-10-04 18:54:00,76.1,56.7,17.72,NE,37,0.0,0.0,51,0.00,,SKC,0.00,VWS V14.00,2013-10-04 22:54:00,
2013-10-04 18:59:00,75.9,57.0,17.72,NE,37,0.0,0.0,52,0.00,,SKC,0.00,VWS V14.00,2013-10-04 22:59:00,
2013-10-04 19:04:00,75.6,56.7,17.72,NE,37,0.0,0.0,52,0.00,,SKC,0.00,VWS V14.00,2013-10-04 23:04:00,
2013-10-04 19:09:00,75.2,56.9,17.72,NE,37,0.0,0.0,53,0.00,,SKC,0.00,VWS V14.00,2013-10-04 23:09:00,
2013-10-04 19:14:00,75.0,57.3,17.72,NE,37,0.0,0.0,54,0.00,,SKC,0.00,VWS V14.00,2013-10-04 23:14:00,
2013-10-04 19:19:00,74.7,56.9,17.72,NE,37,0.0,0.0,54,0.00,,SKC,0.00,VWS V14.00,2013-10-04 23:19:00,
2013-10-04 19:24:00,74.3,57.1,17.72,NE,37,0.0,0.0,55,0.00,,SKC,0.00,VWS V14.00,2013-10-04 23:24:00,
2013-10-04 19:29:00,73.9,57.3,17.72,NE,37,0.0,0.0,56,0.00,,SKC,0.00,VWS V14.00,2013-10-04 23:29:00,
2013-10-04 19:34:00,73.8,57.1,17.72,NE,37,0.0,0.0,56,0.00,,SKC,0.00,VWS V14.00,2013-10-04 23:34:00,
2013-10-04 19:39:00,73.4,57.3,17.72,NE,37,0.0,0.0,57,0.00,,SKC,0.00,VWS V14.00,2013-10-04 23:39:00,
2013-10-04 19:44:00,73.2,57.6,17.72,NE,37,0.0,0.0,58,0.00,,SKC,0.00,VWS V14.00,2013-10-04 23:44:00,
2013-10-04 19:49:00,72.9,57.2,17.72,NE,37,0.0,0.0,58,0.00,,SKC,0.00,VWS V14.00,2013-10-04 23:49:00,
2013-10-04 19:54:00,72.5,57.4,17.72,NE,37,0.0,0.0,59,0.00,,SKC,0.00,VWS V14.00,2013-10-04 23:54:00,
2013-10-04 19:59:00,72.5,57.4,17.72,NE,37,0.0,0.0,59,0.00,,SKC,0.00,VWS V14.00,2013-10-04 23:59:00,
2013-10-04 20:04:00,72.5,57.8,17.72,NE,37,0.0,0.0,60,0.00,,SKC,0.00,VWS V14.00,2013-10-05 00:04:00,
2013-10-04 20:09:00,72.3,57.7,17.72,NE,37,0.0,0.0,60,0.00,,SKC,0.00,VWS V14.00,2013-10-05 00:09:00,
2013-10-04 20:14:00,72.1,57.5,17.72,NE,37,0.0,0.0,60,0.00,,SKC,0.00,VWS V14.00,2013-10-05 00:14:00,
2013-10-04 20:19:00,71.8,57.6,17.72,NE,37,0.0,0.0,61,0.00,,SKC,0.00,VWS V14.00,2013-10-05 00:19:00,
2013-10-04 20:24:00,71.6,57.9,17.72,NE,37,0.0,0.0,62,0.00,,SKC,0.00,VWS V14.00,2013-10-05 00:24:00,
2013-10-04 20:29:00,71.6,57.9,17.72,NE,37,0.0,0.0,62,0.00,,SKC,0.00,VWS V14.00,2013-10-05 00:29:00,
2013-10-04 20:34:00,71.4,58.2,17.72,NE,37,0.0,0.0,63,0.00,,SKC,0.00,VWS V14.00,2013-10-05 00:34:00,
2013-10-04 20:39:00,71.2,58.0,17.72,NE,37,0.0,0.0,63,0.00,,SKC,0.00,VWS V14.00,2013-10-05 00:39:00,
2013-10-04 20:44:00,71.1,58.3,17.72,NE,37,0.0,0.0,64,0.00,,SKC,0.00,VWS V14.00,2013-10-05 00:44:00,
2013-10-04 20:49:00,71.1,58.3,17.72,NE,37,0.0,0.0,64,0.00,,SKC,0.00,VWS V14.00,2013-10-05 00:49:00,
2013-10-04 20:54:00,71.1,58.3,17.72,NE,37,0.0,0.0,64,0.00,,SKC,0.00,VWS V14.00,2013-10-05 00:54:00,
2013-10-04 20:59:00,70.9,58.1,17.72,NE,37,0.0,0.0,64,0.00,,SKC,0.00,VWS V14.00,2013-10-05 00:59:00,
2013-10-04 21:04:00,70.9,58.1,17.72,NE,37,0.0,0.0,64,0.00,,SKC,0.00,VWS V14.00,2013-10-05 01:04:00,
2013-10-04 21:09:00,70.7,58.4,17.72,NE,37,0.0,0.0,65,0.00,,SKC,0.00,VWS V14.00,2013-10-05 01:09:00,
2013-10-04 21:14:00,70.5,58.2,17.72,NE,37,0.0,0.0,65,0.00,,SKC,0.00,VWS V14.00,2013-10-05 01:14:00,
2013-10-04 21:19:00,70.3,58.0,17.72,NE,37,0.0,0.0,65,0.00,,SKC,0.00,VWS V14.00,2013-10-05 01:19:00,
2013-10-04 21:24:00,70.2,57.9,17.72,NE,37,0.0,0.0,65,0.00,,SKC,0.00,VWS V14.00,2013-10-05 01:24:00,
2013-10-04 21:29:00,70.2,57.9,17.72,NE,37,0.0,0.0,65,0.00,,SKC,0.00,VWS V14.00,2013-10-05 01:29:00,
2013-10-04 21:34:00,70.0,57.7,17.72,NE,37,0.0,0.0,65,0.00,,SKC,0.00,VWS V14.00,2013-10-05 01:34:00,
2013-10-04 21:39:00,69.8,57.9,17.72,NE,37,0.0,0.0,66,0.00,,SKC,0.00,VWS V14.00,2013-10-05 01:39:00,
2013-10-04 21:44:00,69.8,57.9,17.72,NE,37,0.0,0.0,66,0.00,,SKC,0.00,VWS V14.00,2013-10-05 01:44:00,
2013-10-04 21:49:00,69.8,57.9,17.72,NE,37,0.0,0.0,66,0.00,,SKC,0.00,VWS V14.00,2013-10-05 01:49:00,
2013-10-04 21:54:00,69.6,58.2,17.72,NE,37,0.0,0.0,67,0.00,,SKC,0.00,VWS V14.00,2013-10-05 01:54:00,
2013-10-04 21:59:00,69.4,58.0,17.72,NE,37,0.0,0.0,67,0.00,,SKC,0.00,VWS V14.00,2013-10-05 01:59:00,
2013-10-04 22:04:00,69.3,57.8,17.72,NE,37,0.0,0.0,67,0.00,,SKC,0.00,VWS V14.00,2013-10-05 02:04:00,
2013-10-04 22:09:00,69.3,57.8,17.72,NE,37,0.0,0.0,67,0.00,,SKC,0.00,VWS V14.00,2013-10-05 02:09:00,
2013-10-04 22:14:00,69.1,57.7,17.72,NE,37,0.0,0.0,67,0.00,,SKC,0.00,VWS V14.00,2013-10-05 02:14:00,
2013-10-04 22:19:00,69.1,58.1,17.72,NE,37,0.0,0.0,68,0.00,,SKC,0.00,VWS V14.00,2013-10-05 02:19:00,
2013-10-04 22:24:00,69.1,58.1,17.72,NE,37,0.0,0.0,68,0.00,,SKC,0.00,VWS V14.00,2013-10-05 02:24:00,
2013-10-04 22:29:00,68.9,57.9,17.72,NE,37,0.0,0.0,68,0.00,,SKC,0.00,VWS V14.00,2013-10-05 02:29:00,
2013-10-04 22:34:00,68.9,57.9,17.72,NE,37,0.0,0.0,68,0.00,,SKC,0.00,VWS V14.00,2013-10-05 02:34:00,
2013-10-04 22:39:00,68.7,57.7,17.72,NE,37,0.0,0.0,68,0.00,,SKC,0.00,VWS V14.00,2013-10-05 02:39:00,
2013-10-04 22:44:00,68.5,57.6,17.72,NE,37,0.0,0.0,68,0.00,,SKC,0.00,VWS V14.00,2013-10-05 02:44:00,
2013-10-04 22:49:00,68.5,58.0,17.72,NE,37,0.0,0.0,69,0.00,,SKC,0.00,VWS V14.00,2013-10-05 02:49:00,
2013-10-04 22:54:00,68.5,58.0,17.72,NE,37,0.0,0.0,69,0.00,,SKC,0.00,VWS V14.00,2013-10-05 02:54:00,
2013-10-04 22:59:00,68.4,57.4,17.72,NE,37,0.0,0.0,68,0.00,,SKC,0.00,VWS V14.00,2013-10-05 02:59:00,
2013-10-04 23:04:00,68.4,57.8,17.72,NE,37,0.0,0.0,69,0.00,,SKC,0.00,VWS V14.00,2013-10-05 03:04:00,
2013-10-04 23:09:00,68.0,57.5,17.72,NE,37,0.0,0.0,69,0.00,,SKC,0.00,VWS V14.00,2013-10-05 03:09:00,
2013-10-04 23:14:00,68.0,57.5,17.72,NE,37,0.0,0.0,69,0.00,,SKC,0.00,VWS V14.00,2013-10-05 03:14:00,
2013-10-04 23:19:00,67.8,57.7,17.72,NE,37,0.0,0.0,70,0.00,,SKC,0.00,VWS V14.00,2013-10-05 03:19:00,
2013-10-04 23:24:00,67.8,57.7,17.72,NE,37,0.0,0.0,70,0.00,,SKC,0.00,VWS V14.00,2013-10-05 03:24:00,
2013-10-04 23:29:00,67.6,57.5,17.72,NE,37,0.0,0.0,70,0.00,,SKC,0.00,VWS V14.00,2013-10-05 03:29:00,
2013-10-04 23:35:00,67.5,57.3,17.72,NE,37,0.0,0.0,70,0.00,,SKC,0.00,VWS V14.00,2013-10-05 03:35:00,
2013-10-04 23:40:00,67.3,57.2,17.72,NE,37,0.0,0.0,70,0.00,,SKC,0.00,VWS V14.00,2013-10-05 03:40:00,
2013-10-04 23:45:00,67.1,57.4,17.72,NE,37,0.0,0.0,71,0.00,,SKC,0.00,VWS V14.00,2013-10-05 03:45:00,
2013-10-04 23:50:00,66.9,57.2,17.72,NE,37,0.0,0.0,71,0.00,,SKC,0.00,VWS V14.00,2013-10-05 03:50:00,
2013-10-04 23:55:00,66.9,57.2,17.72,NE,37,0.0,0.0,71,0.00,,SKC,0.00,VWS V14.00,2013-10-05 03:55:00,